sensor_id;sensor_type;location;lat;lon;timestamp;temperature;humidity
50989;DHT22;37008;52.210;21.112;2023-04-01T00:01:38;9.40;99.90
50989;DHT22;37008;52.210;21.112;2023-04-01T00:04:03;9.40;99.90
50989;DHT22;37008;52.210;21.112;2023-04-01T00:06:29;9.40;99.90
50989;DHT22;37008;52.210;21.112;2023-04-01T00:08:55;9.30;99.90
50989;DHT22;37008;52.210;21.112;2023-04-01T00:11:20;9.40;99.90
50989;DHT22;37008;52.210;21.112;2023-04-01T00:13:46;9.40;99.90
50989;DHT22;37008;52.210;21.112;2023-04-01T00:16:12;9.40;99.90
50989;DHT22;37008;52.210;21.112;2023-04-01T00:18:38;9.30;99.90
50989;DHT22;37008;52.210;21.112;2023-04-01T00:21:05;9.30;99.90
50989;DHT22;37008;52.210;21.112;2023-04-01T00:23:30;9.30;99.90
50989;DHT22;37008;52.210;21.112;2023-04-01T00:25:58;9.30;99.90
50989;DHT22;37008;52.210;21.112;2023-04-01T00:28:24;9.30;99.90
50989;DHT22;37008;52.210;21.112;2023-04-01T00:30:50;9.20;99.90
50989;DHT22;37008;52.210;21.112;2023-04-01T00:33:16;9.20;99.90
50989;DHT22;37008;52.210;21.112;2023-04-01T00:35:42;9.20;99.90
50989;DHT22;37008;52.210;21.112;2023-04-01T00:38:08;9.20;99.90
50989;DHT22;37008;52.210;21.112;2023-04-01T00:40:37;9.20;99.90
50989;DHT22;37008;52.210;21.112;2023-04-01T00:43:08;9.20;99.90
50989;DHT22;37008;52.210;21.112;2023-04-01T00:45:41;9.20;99.90
50989;DHT22;37008;52.210;21.112;2023-04-01T00:48:11;9.20;99.90
50989;DHT22;37008;52.210;21.112;2023-04-01T00:50:42;9.20;99.90
50989;DHT22;37008;52.210;21.112;2023-04-01T00:53:09;9.10;99.90
50989;DHT22;37008;52.210;21.112;2023-04-01T00:55:39;9.20;99.90
50989;DHT22;37008;52.210;21.112;2023-04-01T00:58:13;9.10;99.90
50989;DHT22;37008;52.210;21.112;2023-04-01T01:00:40;9.10;99.90
50989;DHT22;37008;52.210;21.112;2023-04-01T01:03:06;9.10;99.90
50989;DHT22;37008;52.210;21.112;2023-04-01T01:06:00;9.20;99.90
50989;DHT22;37008;52.210;21.112;2023-04-01T01:08:46;9.20;99.90
50989;DHT22;37008;52.210;21.112;2023-04-01T01:11:14;9.20;99.90
50989;DHT22;37008;52.210;21.112;2023-04-01T01:13:57;9.20;99.90
50989;DHT22;37008;52.210;21.112;2023-04-01T01:16:31;9.20;99.90
50989;DHT22;37008;52.210;21.112;2023-04-01T01:21:49;9.20;99.90
50989;DHT22;37008;52.210;21.112;2023-04-01T01:27:16;9.20;99.90
50989;DHT22;37008;52.210;21.112;2023-04-01T01:30:39;9.20;99.90
50989;DHT22;37008;52.210;21.112;2023-04-01T01:33:12;9.10;99.90
50989;DHT22;37008;52.210;21.112;2023-04-01T01:35:49;9.10;99.90
50989;DHT22;37008;52.210;21.112;2023-04-01T01:38:18;9.00;99.90
50989;DHT22;37008;52.210;21.112;2023-04-01T01:40:49;9.10;99.90
50989;DHT22;37008;52.210;21.112;2023-04-01T01:43:21;9.10;99.90
50989;DHT22;37008;52.210;21.112;2023-04-01T01:45:52;9.00;99.90
50989;DHT22;37008;52.210;21.112;2023-04-01T01:48:19;9.00;99.90
50989;DHT22;37008;52.210;21.112;2023-04-01T01:50:46;9.00;99.90
50989;DHT22;37008;52.210;21.112;2023-04-01T01:53:13;9.10;99.90
50989;DHT22;37008;52.210;21.112;2023-04-01T01:55:44;9.00;99.90
50989;DHT22;37008;52.210;21.112;2023-04-01T01:58:17;9.00;99.90
50989;DHT22;37008;52.210;21.112;2023-04-01T02:00:53;9.00;99.90
50989;DHT22;37008;52.210;21.112;2023-04-01T02:03:21;9.10;99.90
50989;DHT22;37008;52.210;21.112;2023-04-01T02:05:50;9.10;99.90
50989;DHT22;37008;52.210;21.112;2023-04-01T02:08:30;9.10;99.90
50989;DHT22;37008;52.210;21.112;2023-04-01T02:11:09;9.10;99.90
50989;DHT22;37008;52.210;21.112;2023-04-01T02:13:50;9.10;99.90
50989;DHT22;37008;52.210;21.112;2023-04-01T02:16:31;9.00;99.90
50989;DHT22;37008;52.210;21.112;2023-04-01T02:18:58;9.00;99.90
50989;DHT22;37008;52.210;21.112;2023-04-01T02:21:28;9.00;99.90
50989;DHT22;37008;52.210;21.112;2023-04-01T02:23:55;9.00;99.90
50989;DHT22;37008;52.210;21.112;2023-04-01T02:26:23;9.00;99.90
50989;DHT22;37008;52.210;21.112;2023-04-01T02:28:51;9.00;99.90
50989;DHT22;37008;52.210;21.112;2023-04-01T02:31:18;8.90;99.90
50989;DHT22;37008;52.210;21.112;2023-04-01T02:33:44;9.00;99.90
50989;DHT22;37008;52.210;21.112;2023-04-01T02:36:13;9.00;99.90
50989;DHT22;37008;52.210;21.112;2023-04-01T02:38:41;9.00;99.90
50989;DHT22;37008;52.210;21.112;2023-04-01T02:41:07;9.00;99.90
50989;DHT22;37008;52.210;21.112;2023-04-01T02:43:33;8.90;99.90
50989;DHT22;37008;52.210;21.112;2023-04-01T02:45:59;9.00;99.90
50989;DHT22;37008;52.210;21.112;2023-04-01T02:48:25;8.90;99.90
50989;DHT22;37008;52.210;21.112;2023-04-01T02:50:50;8.90;99.90
50989;DHT22;37008;52.210;21.112;2023-04-01T02:53:16;8.80;99.90
50989;DHT22;37008;52.210;21.112;2023-04-01T02:55:42;8.80;99.90
50989;DHT22;37008;52.210;21.112;2023-04-01T02:58:07;8.80;99.90
50989;DHT22;37008;52.210;21.112;2023-04-01T03:00:33;8.80;99.90
50989;DHT22;37008;52.210;21.112;2023-04-01T03:02:59;8.70;99.90
50989;DHT22;37008;52.210;21.112;2023-04-01T03:05:25;8.70;99.90
50989;DHT22;37008;52.210;21.112;2023-04-01T03:07:51;8.60;99.90
50989;DHT22;37008;52.210;21.112;2023-04-01T03:10:16;8.50;99.90
50989;DHT22;37008;52.210;21.112;2023-04-01T03:12:42;8.50;99.90
50989;DHT22;37008;52.210;21.112;2023-04-01T03:15:10;8.40;99.90
50989;DHT22;37008;52.210;21.112;2023-04-01T03:17:38;8.50;99.90
50989;DHT22;37008;52.210;21.112;2023-04-01T03:20:03;8.50;99.90
50989;DHT22;37008;52.210;21.112;2023-04-01T03:22:30;8.50;99.90
50989;DHT22;37008;52.210;21.112;2023-04-01T03:24:56;8.50;99.90
50989;DHT22;37008;52.210;21.112;2023-04-01T03:27:21;8.60;99.90
50989;DHT22;37008;52.210;21.112;2023-04-01T03:29:47;8.60;99.90
50989;DHT22;37008;52.210;21.112;2023-04-01T03:32:12;8.60;99.90
50989;DHT22;37008;52.210;21.112;2023-04-01T03:34:38;8.60;99.90
50989;DHT22;37008;52.210;21.112;2023-04-01T03:37:04;8.70;99.90
50989;DHT22;37008;52.210;21.112;2023-04-01T03:39:30;8.70;99.90
50989;DHT22;37008;52.210;21.112;2023-04-01T03:41:56;8.70;99.90
50989;DHT22;37008;52.210;21.112;2023-04-01T03:44:22;8.70;99.90
50989;DHT22;37008;52.210;21.112;2023-04-01T03:46:47;8.70;99.90
50989;DHT22;37008;52.210;21.112;2023-04-01T03:49:13;8.70;99.90
50989;DHT22;37008;52.210;21.112;2023-04-01T03:51:40;8.70;99.90
50989;DHT22;37008;52.210;21.112;2023-04-01T03:54:06;8.70;99.90
50989;DHT22;37008;52.210;21.112;2023-04-01T03:56:32;8.60;99.90
50989;DHT22;37008;52.210;21.112;2023-04-01T03:58:58;8.60;99.90
50989;DHT22;37008;52.210;21.112;2023-04-01T04:01:23;8.60;99.90
50989;DHT22;37008;52.210;21.112;2023-04-01T04:03:50;8.70;99.90
50989;DHT22;37008;52.210;21.112;2023-04-01T04:06:17;8.70;99.90
50989;DHT22;37008;52.210;21.112;2023-04-01T04:08:43;8.70;99.90
50989;DHT22;37008;52.210;21.112;2023-04-01T04:11:10;8.70;99.90
50989;DHT22;37008;52.210;21.112;2023-04-01T04:13:35;8.70;99.90
50989;DHT22;37008;52.210;21.112;2023-04-01T04:16:02;8.70;99.90
50989;DHT22;37008;52.210;21.112;2023-04-01T04:18:28;8.70;99.90
50989;DHT22;37008;52.210;21.112;2023-04-01T04:20:54;8.80;99.90
50989;DHT22;37008;52.210;21.112;2023-04-01T04:23:20;8.70;99.90
50989;DHT22;37008;52.210;21.112;2023-04-01T04:26:13;8.80;99.90
50989;DHT22;37008;52.210;21.112;2023-04-01T04:28:39;8.80;99.90
50989;DHT22;37008;52.210;21.112;2023-04-01T04:31:06;8.80;99.90
50989;DHT22;37008;52.210;21.112;2023-04-01T04:33:33;8.80;99.90
50989;DHT22;37008;52.210;21.112;2023-04-01T04:35:59;8.80;99.90
50989;DHT22;37008;52.210;21.112;2023-04-01T04:38:25;8.70;99.90
50989;DHT22;37008;52.210;21.112;2023-04-01T04:40:51;8.70;99.90
50989;DHT22;37008;52.210;21.112;2023-04-01T04:43:17;8.80;99.90
50989;DHT22;37008;52.210;21.112;2023-04-01T04:45:43;8.80;99.90
50989;DHT22;37008;52.210;21.112;2023-04-01T04:48:11;8.70;99.90
50989;DHT22;37008;52.210;21.112;2023-04-01T04:50:41;8.80;99.90
50989;DHT22;37008;52.210;21.112;2023-04-01T04:53:10;8.80;99.90
50989;DHT22;37008;52.210;21.112;2023-04-01T04:55:36;8.80;99.90
50989;DHT22;37008;52.210;21.112;2023-04-01T04:58:01;8.90;99.90
50989;DHT22;37008;52.210;21.112;2023-04-01T05:00:27;8.90;99.90
50989;DHT22;37008;52.210;21.112;2023-04-01T05:02:52;8.90;99.90
50989;DHT22;37008;52.210;21.112;2023-04-01T05:05:18;8.90;99.90
50989;DHT22;37008;52.210;21.112;2023-04-01T05:07:43;8.90;99.90
50989;DHT22;37008;52.210;21.112;2023-04-01T05:10:09;8.90;99.90
50989;DHT22;37008;52.210;21.112;2023-04-01T05:12:35;8.90;99.90
50989;DHT22;37008;52.210;21.112;2023-04-01T05:15:05;9.00;99.90
50989;DHT22;37008;52.210;21.112;2023-04-01T05:17:31;9.00;99.90
50989;DHT22;37008;52.210;21.112;2023-04-01T05:19:57;9.00;99.90
50989;DHT22;37008;52.210;21.112;2023-04-01T05:22:23;9.00;99.90
50989;DHT22;37008;52.210;21.112;2023-04-01T05:24:48;8.90;99.90
50989;DHT22;37008;52.210;21.112;2023-04-01T05:27:14;9.00;99.90
50989;DHT22;37008;52.210;21.112;2023-04-01T05:29:40;9.00;99.90
50989;DHT22;37008;52.210;21.112;2023-04-01T05:32:06;9.00;99.90
50989;DHT22;37008;52.210;21.112;2023-04-01T05:34:31;9.00;99.90
50989;DHT22;37008;52.210;21.112;2023-04-01T05:36:57;9.10;99.90
50989;DHT22;37008;52.210;21.112;2023-04-01T05:39:22;9.10;99.90
50989;DHT22;37008;52.210;21.112;2023-04-01T05:41:49;9.20;99.90
50989;DHT22;37008;52.210;21.112;2023-04-01T05:44:14;9.20;99.90
50989;DHT22;37008;52.210;21.112;2023-04-01T05:46:40;9.20;99.90
50989;DHT22;37008;52.210;21.112;2023-04-01T05:49:06;9.30;99.90
50989;DHT22;37008;52.210;21.112;2023-04-01T05:51:31;9.30;99.90
50989;DHT22;37008;52.210;21.112;2023-04-01T05:53:57;9.30;99.90
50989;DHT22;37008;52.210;21.112;2023-04-01T05:56:23;9.40;99.90
50989;DHT22;37008;52.210;21.112;2023-04-01T05:58:51;9.40;99.90
50989;DHT22;37008;52.210;21.112;2023-04-01T06:01:18;9.40;99.90
50989;DHT22;37008;52.210;21.112;2023-04-01T06:03:44;9.40;99.90
50989;DHT22;37008;52.210;21.112;2023-04-01T06:06:16;9.40;99.90
50989;DHT22;37008;52.210;21.112;2023-04-01T06:08:42;9.40;99.90
50989;DHT22;37008;52.210;21.112;2023-04-01T06:11:19;9.40;99.90
50989;DHT22;37008;52.210;21.112;2023-04-01T06:24:56;9.90;99.90
50989;DHT22;37008;52.210;21.112;2023-04-01T06:28:35;9.90;99.90
50989;DHT22;37008;52.210;21.112;2023-04-01T06:40:26;10.20;99.90
50989;DHT22;37008;52.210;21.112;2023-04-01T06:46:04;10.40;99.90
50989;DHT22;37008;52.210;21.112;2023-04-01T06:51:21;10.40;99.90
50989;DHT22;37008;52.210;21.112;2023-04-01T06:56:30;10.40;99.90
50989;DHT22;37008;52.210;21.112;2023-04-01T06:59:01;10.40;99.90
50989;DHT22;37008;52.210;21.112;2023-04-01T07:01:36;10.50;99.90
50989;DHT22;37008;52.210;21.112;2023-04-01T07:04:11;10.60;99.90
50989;DHT22;37008;52.210;21.112;2023-04-01T07:09:11;10.70;99.90
50989;DHT22;37008;52.210;21.112;2023-04-01T07:11:38;10.70;99.90
50989;DHT22;37008;52.210;21.112;2023-04-01T07:14:27;10.80;99.90
50989;DHT22;37008;52.210;21.112;2023-04-01T07:22:43;10.90;99.90
50989;DHT22;37008;52.210;21.112;2023-04-01T07:28:03;10.90;99.90
50989;DHT22;37008;52.210;21.112;2023-04-01T07:33:48;10.90;99.90
50989;DHT22;37008;52.210;21.112;2023-04-01T07:36:26;10.90;99.90
50989;DHT22;37008;52.210;21.112;2023-04-01T07:44:25;10.70;99.90
50989;DHT22;37008;52.210;21.112;2023-04-01T07:55:14;10.30;99.90
50989;DHT22;37008;52.210;21.112;2023-04-01T08:01:03;10.40;99.90
50989;DHT22;37008;52.210;21.112;2023-04-01T08:03:53;10.60;99.90
50989;DHT22;37008;52.210;21.112;2023-04-01T08:06:36;10.80;99.90
50989;DHT22;37008;52.210;21.112;2023-04-01T08:09:17;11.00;99.90
50989;DHT22;37008;52.210;21.112;2023-04-01T08:12:08;11.20;99.90
50989;DHT22;37008;52.210;21.112;2023-04-01T08:20:26;11.50;99.90
50989;DHT22;37008;52.210;21.112;2023-04-01T08:25:34;11.70;99.90
50989;DHT22;37008;52.210;21.112;2023-04-01T08:28:17;11.70;99.90
50989;DHT22;37008;52.210;21.112;2023-04-01T08:33:58;11.90;99.90
50989;DHT22;37008;52.210;21.112;2023-04-01T08:36:53;12.00;99.90
50989;DHT22;37008;52.210;21.112;2023-04-01T08:39:40;12.00;99.90
50989;DHT22;37008;52.210;21.112;2023-04-01T08:59:09;12.10;99.90
50989;DHT22;37008;52.210;21.112;2023-04-01T09:02:05;12.20;99.90
50989;DHT22;37008;52.210;21.112;2023-04-01T09:07:29;12.00;99.90
50989;DHT22;37008;52.210;21.112;2023-04-01T09:18:38;11.70;99.90
50989;DHT22;37008;52.210;21.112;2023-04-01T09:21:37;11.70;99.90
50989;DHT22;37008;52.210;21.112;2023-04-01T09:35:24;12.20;99.90
50989;DHT22;37008;52.210;21.112;2023-04-01T10:00:03;10.60;99.90
50989;DHT22;37008;52.210;21.112;2023-04-01T10:15:27;9.50;99.90
50989;DHT22;37008;52.210;21.112;2023-04-01T10:29:33;9.80;99.90
50989;DHT22;37008;52.210;21.112;2023-04-01T10:32:32;10.00;99.90
50989;DHT22;37008;52.210;21.112;2023-04-01T10:35:10;10.10;99.90
50989;DHT22;37008;52.210;21.112;2023-04-01T11:14:03;12.00;99.90
50989;DHT22;37008;52.210;21.112;2023-04-01T11:20:13;11.90;99.90
50989;DHT22;37008;52.210;21.112;2023-04-01T11:40:14;12.20;99.90
50989;DHT22;37008;52.210;21.112;2023-04-01T11:42:57;12.20;99.90
50989;DHT22;37008;52.210;21.112;2023-04-01T12:07:21;12.20;99.90
50989;DHT22;37008;52.210;21.112;2023-04-01T12:09:52;12.20;99.90
50989;DHT22;37008;52.210;21.112;2023-04-01T12:12:54;12.30;99.90
50989;DHT22;37008;52.210;21.112;2023-04-01T12:21:25;12.10;99.90
50989;DHT22;37008;52.210;21.112;2023-04-01T12:23:57;12.20;99.90
50989;DHT22;37008;52.210;21.112;2023-04-01T12:29:30;12.30;99.90
50989;DHT22;37008;52.210;21.112;2023-04-01T12:35:26;12.50;99.90
50989;DHT22;37008;52.210;21.112;2023-04-01T12:37:42;12.70;99.90
50989;DHT22;37008;52.210;21.112;2023-04-01T12:43:34;12.80;99.90
50989;DHT22;37008;52.210;21.112;2023-04-01T12:59:30;13.20;99.90
50989;DHT22;37008;52.210;21.112;2023-04-01T13:02:03;13.20;99.90
50989;DHT22;37008;52.210;21.112;2023-04-01T13:15:13;12.90;98.70
50989;DHT22;37008;52.210;21.112;2023-04-01T13:18:07;12.90;97.10
50989;DHT22;37008;52.210;21.112;2023-04-01T13:21:01;12.80;97.80
50989;DHT22;37008;52.210;21.112;2023-04-01T13:29:14;12.60;99.40
50989;DHT22;37008;52.210;21.112;2023-04-01T13:34:37;12.40;99.90
50989;DHT22;37008;52.210;21.112;2023-04-01T13:43:32;12.30;99.90
50989;DHT22;37008;52.210;21.112;2023-04-01T13:46:08;12.20;99.90
50989;DHT22;37008;52.210;21.112;2023-04-01T14:02:50;11.20;99.90
50989;DHT22;37008;52.210;21.112;2023-04-01T14:05:52;11.00;99.90
50989;DHT22;37008;52.210;21.112;2023-04-01T14:08:29;10.80;99.90
50989;DHT22;37008;52.210;21.112;2023-04-01T14:11:16;10.50;99.90
50989;DHT22;37008;52.210;21.112;2023-04-01T14:16:44;10.20;99.90
50989;DHT22;37008;52.210;21.112;2023-04-01T14:19:32;10.10;99.90
50989;DHT22;37008;52.210;21.112;2023-04-01T14:24:50;10.00;99.90
50989;DHT22;37008;52.210;21.112;2023-04-01T14:30:16;10.00;99.90
50989;DHT22;37008;52.210;21.112;2023-04-01T14:32:56;9.90;99.90
50989;DHT22;37008;52.210;21.112;2023-04-01T14:35:33;9.90;99.90
50989;DHT22;37008;52.210;21.112;2023-04-01T14:41:17;9.90;99.90
50989;DHT22;37008;52.210;21.112;2023-04-01T14:49:37;10.10;99.90
50989;DHT22;37008;52.210;21.112;2023-04-01T14:52:30;10.10;99.90
50989;DHT22;37008;52.210;21.112;2023-04-01T14:54:57;10.30;99.90
50989;DHT22;37008;52.210;21.112;2023-04-01T14:57:31;10.30;99.90
50989;DHT22;37008;52.210;21.112;2023-04-01T15:00:15;10.30;99.90
50989;DHT22;37008;52.210;21.112;2023-04-01T15:03:00;10.30;99.90
50989;DHT22;37008;52.210;21.112;2023-04-01T15:08:56;10.20;99.90
50989;DHT22;37008;52.210;21.112;2023-04-01T15:11:32;10.10;99.90
50989;DHT22;37008;52.210;21.112;2023-04-01T15:27:51;9.40;99.90
50989;DHT22;37008;52.210;21.112;2023-04-01T15:38:11;9.10;99.90
50989;DHT22;37008;52.210;21.112;2023-04-01T15:40:51;9.10;99.90
50989;DHT22;37008;52.210;21.112;2023-04-01T15:49:00;9.00;99.90
50989;DHT22;37008;52.210;21.112;2023-04-01T15:52:02;8.90;99.90
50989;DHT22;37008;52.210;21.112;2023-04-01T15:54:59;8.90;99.90
50989;DHT22;37008;52.210;21.112;2023-04-01T16:02:07;8.90;99.90
50989;DHT22;37008;52.210;21.112;2023-04-01T16:04:43;9.00;99.90
50989;DHT22;37008;52.210;21.112;2023-04-01T16:07:22;9.00;99.90
50989;DHT22;37008;52.210;21.112;2023-04-01T16:10:29;9.00;99.90
50989;DHT22;37008;52.210;21.112;2023-04-01T16:21:21;9.10;99.90
50989;DHT22;37008;52.210;21.112;2023-04-01T16:23:59;9.10;99.90
50989;DHT22;37008;52.210;21.112;2023-04-01T16:29:36;9.10;99.90
50989;DHT22;37008;52.210;21.112;2023-04-01T16:40:44;8.70;99.90
50989;DHT22;37008;52.210;21.112;2023-04-01T16:51:35;8.50;99.90
50989;DHT22;37008;52.210;21.112;2023-04-01T16:54:06;8.40;99.90
50989;DHT22;37008;52.210;21.112;2023-04-01T16:56:50;8.40;99.90
50989;DHT22;37008;52.210;21.112;2023-04-01T16:59:44;8.40;99.90
50989;DHT22;37008;52.210;21.112;2023-04-01T17:02:14;8.40;99.90
50989;DHT22;37008;52.210;21.112;2023-04-01T17:04:59;8.40;99.90
50989;DHT22;37008;52.210;21.112;2023-04-01T17:12:52;8.40;99.90
50989;DHT22;37008;52.210;21.112;2023-04-01T17:21:07;8.30;99.90
50989;DHT22;37008;52.210;21.112;2023-04-01T17:29:24;8.30;99.90
50989;DHT22;37008;52.210;21.112;2023-04-01T17:32:12;8.30;99.90
50989;DHT22;37008;52.210;21.112;2023-04-01T17:40:20;8.40;99.90
50989;DHT22;37008;52.210;21.112;2023-04-01T17:43:04;8.40;99.90
50989;DHT22;37008;52.210;21.112;2023-04-01T17:45:49;8.30;99.90
50989;DHT22;37008;52.210;21.112;2023-04-01T17:56:52;8.40;99.90
50989;DHT22;37008;52.210;21.112;2023-04-01T17:59:48;8.40;99.90
50989;DHT22;37008;52.210;21.112;2023-04-01T18:05:22;8.40;99.90
50989;DHT22;37008;52.210;21.112;2023-04-01T18:16:43;8.40;99.90
50989;DHT22;37008;52.210;21.112;2023-04-01T18:20:00;8.40;99.90
50989;DHT22;37008;52.210;21.112;2023-04-01T18:23:00;8.40;99.90
50989;DHT22;37008;52.210;21.112;2023-04-01T18:25:37;8.40;99.90
50989;DHT22;37008;52.210;21.112;2023-04-01T18:28:19;8.40;99.90
50989;DHT22;37008;52.210;21.112;2023-04-01T18:30:56;8.40;99.90
50989;DHT22;37008;52.210;21.112;2023-04-01T18:33:47;8.40;99.90
50989;DHT22;37008;52.210;21.112;2023-04-01T18:39:11;8.30;99.90
50989;DHT22;37008;52.210;21.112;2023-04-01T18:44:46;8.30;99.90
50989;DHT22;37008;52.210;21.112;2023-04-01T18:47:43;8.30;99.90
50989;DHT22;37008;52.210;21.112;2023-04-01T18:50:43;8.30;99.90
50989;DHT22;37008;52.210;21.112;2023-04-01T18:53:35;8.30;99.90
50989;DHT22;37008;52.210;21.112;2023-04-01T18:58:54;8.20;99.90
50989;DHT22;37008;52.210;21.112;2023-04-01T19:01:52;8.10;99.90
50989;DHT22;37008;52.210;21.112;2023-04-01T19:04:37;8.10;99.90
50989;DHT22;37008;52.210;21.112;2023-04-01T19:07:43;8.10;99.90
50989;DHT22;37008;52.210;21.112;2023-04-01T19:10:37;8.10;99.90
50989;DHT22;37008;52.210;21.112;2023-04-01T19:16:04;8.00;99.90
50989;DHT22;37008;52.210;21.112;2023-04-01T19:18:41;8.00;99.90
50989;DHT22;37008;52.210;21.112;2023-04-01T19:27:14;7.90;99.90
50989;DHT22;37008;52.210;21.112;2023-04-01T19:38:30;7.90;99.90
50989;DHT22;37008;52.210;21.112;2023-04-01T19:52:20;7.90;99.90
50989;DHT22;37008;52.210;21.112;2023-04-01T20:00:41;7.80;99.90
50989;DHT22;37008;52.210;21.112;2023-04-01T20:06:15;7.80;99.90
50989;DHT22;37008;52.210;21.112;2023-04-01T20:11:46;7.80;99.90
50989;DHT22;37008;52.210;21.112;2023-04-01T20:41:45;7.40;99.90
50989;DHT22;37008;52.210;21.112;2023-04-01T20:50:00;7.50;99.90
50989;DHT22;37008;52.210;21.112;2023-04-01T20:57:45;7.40;99.90
50989;DHT22;37008;52.210;21.112;2023-04-01T21:03:10;7.40;99.90
50989;DHT22;37008;52.210;21.112;2023-04-01T21:06:22;7.40;99.90
50989;DHT22;37008;52.210;21.112;2023-04-01T21:08:53;7.30;99.90
50989;DHT22;37008;52.210;21.112;2023-04-01T21:20:36;7.30;99.90
50989;DHT22;37008;52.210;21.112;2023-04-01T21:26:19;7.30;99.90
50989;DHT22;37008;52.210;21.112;2023-04-01T21:29:32;7.30;99.90
50989;DHT22;37008;52.210;21.112;2023-04-01T21:43:20;7.30;99.90
50989;DHT22;37008;52.210;21.112;2023-04-01T21:46:02;7.30;99.90
50989;DHT22;37008;52.210;21.112;2023-04-01T22:05:51;7.20;99.90
50989;DHT22;37008;52.210;21.112;2023-04-01T22:08:52;7.20;99.90
50989;DHT22;37008;52.210;21.112;2023-04-01T22:14:13;7.10;99.90
50989;DHT22;37008;52.210;21.112;2023-04-01T22:16:54;7.10;99.90
50989;DHT22;37008;52.210;21.112;2023-04-01T22:25:29;7.10;99.90
50989;DHT22;37008;52.210;21.112;2023-04-01T22:30:51;7.00;99.90
50989;DHT22;37008;52.210;21.112;2023-04-01T22:38:50;7.00;99.90
50989;DHT22;37008;52.210;21.112;2023-04-01T22:43:58;7.00;99.90
50989;DHT22;37008;52.210;21.112;2023-04-01T22:49:06;6.90;99.90
50989;DHT22;37008;52.210;21.112;2023-04-01T22:51:45;6.90;99.90
50989;DHT22;37008;52.210;21.112;2023-04-01T22:57:01;6.90;99.90
50989;DHT22;37008;52.210;21.112;2023-04-01T22:59:41;6.80;99.90
50989;DHT22;37008;52.210;21.112;2023-04-01T23:02:19;6.80;99.90
50989;DHT22;37008;52.210;21.112;2023-04-01T23:04:52;6.80;99.90
50989;DHT22;37008;52.210;21.112;2023-04-01T23:13:34;6.70;99.90
50989;DHT22;37008;52.210;21.112;2023-04-01T23:16:04;6.70;99.90
50989;DHT22;37008;52.210;21.112;2023-04-01T23:18:49;6.70;99.90
50989;DHT22;37008;52.210;21.112;2023-04-01T23:21:43;6.70;99.90
50989;DHT22;37008;52.210;21.112;2023-04-01T23:29:46;6.60;99.90
50989;DHT22;37008;52.210;21.112;2023-04-01T23:32:17;6.60;99.90
50989;DHT22;37008;52.210;21.112;2023-04-01T23:34:49;6.60;99.90
50989;DHT22;37008;52.210;21.112;2023-04-01T23:37:15;6.60;99.90
50989;DHT22;37008;52.210;21.112;2023-04-01T23:39:45;6.60;99.90
50989;DHT22;37008;52.210;21.112;2023-04-01T23:42:31;6.60;99.90
50989;DHT22;37008;52.210;21.112;2023-04-01T23:45:24;6.60;99.90
50989;DHT22;37008;52.210;21.112;2023-04-01T23:47:50;6.60;99.90
50989;DHT22;37008;52.210;21.112;2023-04-01T23:50:23;6.50;99.90
50989;DHT22;37008;52.210;21.112;2023-04-01T23:53:02;6.50;99.90
50989;DHT22;37008;52.210;21.112;2023-04-01T23:55:31;6.50;99.90
50989;DHT22;37008;52.210;21.112;2023-04-01T23:58:12;6.50;99.90
